.
WxDataArchive / Data Records for 2008-09-14
2008-09-13 September 2008 2008-09-15

Data Records for Sunday, 14 September 2008

Time	Temp	Chill	HIndex	Humid	Dewpt	 Wind 	HiWind	WindDir	Rain 	Barom 
-----	----	-----	------	-----	-----	------	------	-------	-----	----- 
00:00	76.8	76.8	78.5	72	67.1	1	2	248	0.00	29.635 
00:05	77.0	77.0	78.7	72	67.3	0	3	248	0.00	29.632 
00:10	77.2	77.2	79.0	71	67.0	1	4	270	0.00	29.631 
00:15	77.2	77.2	79.0	71	67.0	1	5	270	0.00	29.631 
00:20	77.4	77.4	79.3	71	67.2	0	3	248	0.00	29.628 
00:25	77.4	77.4	79.3	71	67.2	1	6	248	0.00	29.632 
00:30	77.6	77.6	79.5	70	67.0	1	2	292	0.00	29.629 
00:35	77.7	77.7	79.6	70	67.1	1	3	270	0.00	29.627 
00:40	77.9	77.9	79.9	70	67.3	1	5	270	0.00	29.629 
00:45	77.9	77.9	79.9	70	67.3	0	2	248	0.00	29.630 
00:50	77.9	77.9	79.9	70	67.3	1	3	248	0.00	29.628 
00:55	78.1	78.1	80.1	69	67.1	1	4	225	0.00	29.626 
01:00	78.3	78.3	80.4	69	67.3	1	4	248	0.00	29.625 
01:05	78.5	78.5	80.7	69	67.5	1	4	248	0.00	29.622 
01:10	78.6	78.6	80.8	69	67.6	1	4	248	0.00	29.618 
01:15	78.8	78.8	81.0	68	67.3	1	5	248	0.00	29.618 
01:20	78.8	78.8	81.0	68	67.3	2	6	248	0.00	29.615 
01:25	78.6	78.6	80.7	68	67.1	1	4	248	0.00	29.614 
01:30	78.6	78.6	80.7	68	67.1	1	5	248	0.00	29.616 
01:35	78.6	78.6	80.8	69	67.6	1	4	248	0.00	29.617 
01:40	78.6	78.6	80.7	68	67.1	2	4	270	0.00	29.615 
01:45	78.8	78.8	81.0	68	67.3	2	7	248	0.00	29.615 
01:50	78.8	78.8	81.0	68	67.3	2	5	292	0.00	29.615 
01:55	78.6	78.6	80.8	69	67.6	0	3	292	0.00	29.615 
02:00	78.5	78.5	80.7	69	67.5	1	4	248	0.00	29.613 
02:05	78.5	78.5	80.7	69	67.5	1	7	292	0.00	29.609 
02:10	78.5	78.5	80.7	69	67.5	2	5	248	0.00	29.606 
02:15	78.3	78.3	80.4	69	67.3	1	4	248	0.00	29.603 
02:20	78.1	78.1	80.2	70	67.5	1	4	248	0.00	29.605 
02:25	77.9	77.9	79.9	71	67.7	1	3	225	0.00	29.604 
02:30	77.7	77.7	79.7	71	67.5	1	3	248	0.00	29.604 
02:35	77.6	77.6	79.5	72	67.8	1	4	248	0.00	29.603 
02:40	77.6	77.6	79.5	72	67.8	1	3	270	0.00	29.604 
02:45	77.6	77.6	79.5	72	67.8	1	3	248	0.00	29.604 
02:50	77.4	77.4	79.3	72	67.6	1	3	270	0.00	29.603 
02:55	77.4	77.4	79.3	73	68.0	1	4	248	0.00	29.603 
03:00	77.2	77.2	79.0	73	67.9	0	2	248	0.00	29.601 
03:05	77.0	77.0	78.7	73	67.7	1	3	248	0.00	29.599 
03:10	77.2	77.2	79.0	73	67.9	1	3	0	0.00	29.599 
03:15	77.0	77.0	78.7	73	67.7	1	3	225	0.00	29.597 
03:20	77.0	77.0	78.7	73	67.7	1	4	225	0.00	29.592 
03:25	77.0	77.0	78.7	73	67.7	0	2	248	0.00	29.590 
03:30	77.0	77.0	78.7	73	67.7	1	4	248	0.00	29.588 
03:35	77.0	77.0	78.7	73	67.7	1	3	248	0.00	29.588 
03:40	77.0	77.0	78.7	73	67.7	0	2	248	0.00	29.589 
03:45	76.8	76.8	78.5	73	67.5	0	2	248	0.00	29.588 
03:50	76.8	76.8	78.5	73	67.5	1	4	248	0.00	29.588 
03:55	76.7	76.7	78.3	73	67.4	1	3	270	0.00	29.587 
04:00	76.7	76.7	78.3	74	67.8	1	4	225	0.00	29.586 
04:05	76.7	76.7	78.3	74	67.8	1	3	270	0.00	29.585 
04:10	76.7	76.7	78.3	73	67.4	1	4	270	0.00	29.583 
04:15	76.7	76.7	78.3	73	67.4	1	4	248	0.00	29.581 
04:20	76.5	76.5	78.1	74	67.6	1	4	270	0.00	29.579 
04:25	76.3	76.3	77.8	74	67.4	1	6	248	0.00	29.579 
04:30	76.3	76.3	77.8	74	67.4	1	2	248	0.00	29.576 
04:35	76.3	76.3	77.8	74	67.4	1	4	248	0.00	29.575 
04:40	76.3	76.3	77.7	75	67.8	1	3	0	0.00	29.574 
04:45	76.1	76.1	77.5	75	67.6	0	2	338	0.00	29.573 
04:50	76.1	76.1	77.5	75	67.6	0	2	338	0.00	29.574 
04:55	76.0	76.0	77.4	75	67.5	0	3	315	0.00	29.572 
05:00	76.0	76.0	77.3	76	67.9	0	2	315	0.00	29.572 
05:05	75.8	75.8	77.0	76	67.7	0	1	292	0.00	29.572 
05:10	75.6	75.6	76.8	76	67.5	0	3	270	0.00	29.572 
05:15	75.4	75.4	76.4	77	67.7	0	2	270	0.00	29.569 
05:20	75.3	75.3	76.3	77	67.6	0	1	270	0.00	29.572 
05:25	75.3	75.3	76.3	77	67.6	0	2	270	0.00	29.572 
05:30	75.3	75.3	76.3	77	67.6	0	2	270	0.00	29.571 
05:35	75.1	75.1	76.1	77	67.4	0	3	270	0.00	29.570 
05:40	75.1	75.1	76.1	77	67.4	1	3	248	0.00	29.567 
05:45	75.1	75.1	76.1	77	67.4	1	3	248	0.00	29.564 
05:50	75.1	75.1	76.1	77	67.4	0	4	270	0.00	29.563 
05:55	75.3	75.3	76.3	77	67.6	1	4	270	0.00	29.561 
06:00	75.3	75.3	76.3	77	67.6	0	1	270	0.00	29.562 
06:05	75.3	75.3	76.3	77	67.6	0	3	270	0.00	29.563 
06:10	75.3	75.3	76.3	77	67.6	0	3	270	0.00	29.561 
06:15	75.3	75.3	76.3	77	67.6	1	3	248	0.00	29.561 
06:20	75.1	75.1	76.1	77	67.4	0	2	248	0.00	29.560 
06:25	75.1	75.1	76.1	77	67.4	1	4	248	0.00	29.557 
06:30	75.1	75.1	76.0	78	67.8	1	4	292	0.00	29.553 
06:35	75.1	75.1	76.0	78	67.8	1	4	248	0.00	29.552 
06:40	75.1	75.1	76.0	78	67.8	1	4	248	0.00	29.552 
06:45	74.9	74.9	74.9	78	67.6	1	6	270	0.00	29.549 
06:50	75.1	75.1	76.0	78	67.8	1	4	270	0.00	29.548 
06:55	75.1	75.1	75.8	79	68.1	0	3	270	0.00	29.547 
07:00	75.1	75.1	75.8	79	68.1	1	6	248	0.00	29.548 
07:05	75.1	75.1	75.8	79	68.1	0	4	248	0.00	29.548 
07:10	75.1	75.1	75.8	79	68.1	0	2	248	0.00	29.547 
07:15	75.1	75.1	75.7	80	68.5	1	4	248	0.00	29.546 
07:20	75.1	75.1	75.7	80	68.5	0	1	135	0.00	29.546 
07:25	75.3	75.3	76.0	80	68.7	0	3	248	0.00	29.548 
07:30	75.1	75.1	75.7	80	68.5	1	4	248	0.00	29.547 
07:35	75.1	75.1	75.7	80	68.5	1	4	248	0.00	29.547 
07:40	75.1	75.1	75.7	80	68.5	1	3	248	0.00	29.547 
07:45	75.1	75.1	75.7	80	68.5	0	3	248	0.00	29.546 
07:50	75.1	75.1	75.6	81	68.9	0	1	248	0.00	29.544 
07:55	74.9	74.9	74.9	81	68.7	0	1	248	0.00	29.543 
08:00	74.9	74.9	74.9	81	68.7	0	3	248	0.00	29.536 
08:05	74.9	74.9	74.9	81	68.7	0	2	0	0.00	29.532 
08:10	74.9	74.9	74.9	81	68.7	0	2	0	0.00	29.531 
08:15	75.1	75.1	75.6	81	68.9	1	4	22	0.00	29.530 
08:20	75.3	75.3	75.9	81	69.1	1	3	292	0.00	29.529 
08:25	75.4	75.4	76.0	81	69.1	0	2	292	0.00	29.529 
08:30	75.4	75.4	76.1	80	68.8	1	5	270	0.00	29.524 
08:35	75.6	75.6	76.4	80	69.0	0	2	270	0.00	29.519 
08:40	76.0	76.0	77.0	80	69.4	0	3	270	0.00	29.516 
08:45	76.1	76.1	77.2	79	69.1	1	4	270	0.00	29.516 
08:50	76.1	76.1	77.2	79	69.1	0	2	248	0.00	29.515 
08:55	76.1	76.1	77.2	79	69.1	0	3	248	0.00	29.513 
09:00	76.5	76.5	77.8	79	69.5	1	4	248	0.00	29.511 
09:05	76.7	76.7	78.2	78	69.3	1	3	112	0.00	29.505 
09:10	76.8	76.8	78.3	78	69.4	0	3	270	0.00	29.500 
09:15	77.0	77.0	78.7	77	69.2	1	6	112	0.00	29.495 
09:20	77.2	77.2	79.0	76	69.0	1	5	270	0.00	29.493 
09:25	77.4	77.4	79.3	76	69.2	0	2	270	0.00	29.489 
09:30	77.6	77.6	79.6	75	69.0	2	9	315	0.00	29.484 
09:35	77.6	77.6	79.6	74	68.6	1	5	45	0.00	29.482 
09:40	77.6	77.6	79.6	75	69.0	1	5	112	0.00	29.482 
09:45	77.6	77.6	79.6	74	68.6	1	7	270	0.00	29.482 
09:50	77.6	77.6	79.6	75	69.0	1	4	270	0.00	29.481 
09:55	77.6	77.6	79.6	75	69.0	1	3	292	0.00	29.470 
10:00	77.7	77.7	79.7	75	69.1	1	3	68	0.00	29.466 
10:05	77.9	77.9	80.0	74	68.9	1	4	68	0.00	29.459 
10:10	78.1	78.1	80.3	73	68.7	1	4	90	0.00	29.452 
10:15	78.3	78.3	80.5	72	68.5	1	6	90	0.00	29.442 
10:20	78.5	78.5	80.8	71	68.3	1	9	112	0.00	29.434 
10:25	78.6	78.6	80.8	70	68.0	2	5	90	0.00	29.423 
10:30	79.0	79.0	81.4	70	68.4	1	4	90	0.00	29.418 
10:35	79.4	79.4	81.9	69	68.3	1	5	112	0.00	29.408 
10:40	79.6	79.6	82.1	68	68.1	1	4	112	0.00	29.405 
10:45	79.8	79.8	82.4	68	68.3	1	4	90	0.00	29.405 
10:50	79.9	79.9	82.5	67	67.9	1	4	248	0.00	29.404 
10:55	80.1	80.1	82.7	67	68.1	1	5	338	0.00	29.405 
11:00	80.1	80.1	82.5	65	67.2	2	6	112	0.00	29.404 
11:05	80.3	80.3	82.8	65	67.4	1	5	90	0.00	29.400 
11:10	80.1	80.1	82.4	64	66.8	1	3	90	0.00	29.390 
11:15	80.1	80.1	82.5	65	67.2	1	6	135	0.00	29.369 
11:20	79.9	79.9	82.2	65	67.1	1	5	90	0.00	29.359 
11:25	79.8	79.8	82.2	66	67.4	1	5	90	0.00	29.357 
11:30	79.6	79.6	82.0	67	67.7	1	3	90	0.00	29.354 
11:35	79.4	79.4	81.6	66	67.0	1	3	90	0.00	29.344 
11:40	79.4	79.4	81.6	66	67.0	2	4	112	0.00	29.337 
11:45	79.4	79.4	81.6	66	67.0	1	5	158	0.00	29.323 
11:50	79.4	79.4	81.6	66	67.0	1	6	158	0.00	29.317 
11:55	79.4	79.4	81.7	67	67.5	0	2	112	0.00	29.299 
12:00	79.2	79.2	81.5	68	67.7	1	6	112	0.00	29.294 
12:05	79.0	79.0	81.2	67	67.1	1	3	45	0.00	29.296 
12:10	79.0	79.0	81.1	66	66.6	1	5	90	0.00	29.286 
12:15	79.2	79.2	81.2	64	65.9	2	7	112	0.00	29.281 
12:20	79.4	79.4	81.5	64	66.1	1	3	90	0.00	29.285 
12:25	79.4	79.4	81.5	64	66.1	1	3	90	0.00	29.281 
12:30	79.4	79.4	81.4	63	65.7	1	3	112	0.00	29.281 
12:35	79.4	79.4	81.4	63	65.7	1	3	112	0.00	29.279 
12:40	79.6	79.6	81.5	62	65.4	2	6	90	0.00	29.268 
12:45	79.8	79.8	81.8	62	65.6	1	5	90	0.00	29.263 
12:50	79.8	79.8	81.8	62	65.6	1	3	112	0.00	29.258 
12:55	79.8	79.8	81.8	62	65.6	1	3	112	0.00	29.248 
13:00	79.9	79.9	81.8	61	65.2	2	5	112	0.00	29.244 
13:05	80.1	80.1	82.0	61	65.4	2	6	112	0.00	29.234 
13:10	80.1	80.1	82.0	61	65.4	1	5	90	0.00	29.227 
13:15	80.1	80.1	82.2	62	65.9	2	6	112	0.00	29.217 
13:20	79.8	79.8	82.2	66	67.4	1	4	90	0.01	29.212 
13:25	78.8	78.8	81.0	68	67.3	1	4	90	0.00	29.203 
13:30	78.1	78.1	80.3	73	68.7	0	2	90	0.01	29.211 
13:35	77.0	77.0	78.7	76	68.8	0	1	90	0.02	29.207 
13:40	75.8	75.8	76.7	80	69.2	0	1	90	0.03	29.212 
13:45	75.1	75.1	75.3	83	69.6	0	0	---	0.02	29.209 
13:50	74.6	74.6	74.6	85	69.8	0	1	90	0.02	29.211 
13:55	74.0	74.0	74.0	86	69.5	1	2	90	0.03	29.215 
14:00	73.5	73.5	73.5	87	69.4	1	4	112	0.02	29.207 
14:05	73.2	73.2	73.2	88	69.4	1	4	90	0.02	29.205 
14:10	72.8	72.8	72.8	89	69.4	1	3	90	0.04	29.204 
14:15	72.7	72.7	72.7	90	69.6	2	5	90	0.05	29.195 
14:20	72.3	72.3	72.3	91	69.5	1	5	112	0.02	29.188 
14:25	72.1	72.1	72.1	92	69.6	2	6	112	0.03	29.185 
14:30	72.0	72.0	72.0	92	69.5	2	5	90	0.03	29.176 
14:35	72.0	72.0	72.0	93	69.9	2	9	112	0.02	29.174 
14:40	72.0	72.0	72.0	93	69.9	1	4	112	0.02	29.171 
14:45	72.0	72.0	72.0	94	70.2	1	4	112	0.01	29.171 
14:50	72.0	72.0	72.0	94	70.2	1	6	90	0.00	29.164 
14:55	72.0	72.0	72.0	94	70.2	2	6	90	0.00	29.168 
15:00	72.0	72.0	72.0	94	70.2	1	4	270	0.01	29.175 
15:05	72.0	72.0	72.0	94	70.2	2	6	270	0.00	29.177 
15:10	72.0	72.0	72.0	94	70.2	3	6	270	0.00	29.171 
15:15	72.0	72.0	72.0	94	70.2	2	9	270	0.00	29.174 
15:20	72.0	72.0	72.0	93	69.9	3	9	270	0.00	29.175 
15:25	72.1	72.1	72.1	93	70.0	3	9	270	0.00	29.175 
15:30	72.3	72.3	72.3	92	69.8	3	9	270	0.00	29.176 
15:35	72.3	72.3	72.3	91	69.5	3	7	270	0.00	29.184 
15:40	72.3	72.3	72.3	90	69.2	3	6	248	0.00	29.189 
15:45	72.1	72.1	72.1	90	69.0	3	7	270	0.00	29.190 
15:50	72.0	72.0	72.0	90	68.9	2	6	270	0.00	29.191 
15:55	71.8	71.8	71.8	91	69.0	2	4	248	0.00	29.193 
16:00	71.6	71.6	71.6	91	68.8	3	6	248	0.00	29.200 
16:05	71.3	71.3	71.3	92	68.8	2	6	292	0.00	29.205 
16:10	71.3	71.3	71.3	92	68.8	2	4	248	0.00	29.210 
16:15	70.9	70.9	70.9	92	68.5	2	12	315	0.02	29.224 
16:20	68.3	68.3	68.3	89	64.9	7	15	292	0.00	29.260 
16:25	66.3	66.3	66.3	89	63.0	6	17	315	0.00	29.295 
16:30	65.2	65.2	65.2	90	62.2	6	16	315	0.00	29.331 
16:35	64.7	64.7	64.7	91	62.0	5	12	292	0.00	29.351 
16:40	64.5	64.5	64.5	92	62.1	4	9	292	0.00	29.365 
16:45	64.3	64.3	64.3	93	62.2	4	18	292	0.00	29.373 
16:50	64.3	64.3	64.3	93	62.2	5	11	292	0.00	29.385 
16:55	64.5	64.5	64.5	93	62.4	3	6	292	0.01	29.401 
17:00	64.5	64.5	64.5	93	62.4	3	6	292	0.00	29.417 
17:05	64.5	64.5	64.5	93	62.4	2	6	315	0.00	29.424 
17:10	64.5	64.5	64.5	93	62.4	2	5	292	0.00	29.434 
17:15	64.5	64.5	64.5	93	62.4	3	6	315	0.00	29.449 
17:20	64.7	64.7	64.7	93	62.6	2	5	315	0.00	29.455 
17:25	64.7	64.7	64.7	93	62.6	3	5	315	0.00	29.464 
17:30	64.7	64.7	64.7	93	62.6	3	9	315	0.00	29.465 
17:35	64.7	64.7	64.7	93	62.6	3	9	315	0.00	29.469 
17:40	64.8	64.8	64.8	93	62.7	3	7	270	0.00	29.482 
17:45	64.8	64.8	64.8	92	62.4	3	6	270	0.00	29.495 
17:50	64.8	64.8	64.8	92	62.4	3	6	270	0.00	29.503 
17:55	64.8	64.8	64.8	91	62.1	3	9	270	0.00	29.514 
18:00	65.0	65.0	65.0	91	62.3	3	6	270	0.00	29.524 
18:05	65.0	65.0	65.0	91	62.3	2	6	315	0.00	29.528 
18:10	64.8	64.8	64.8	91	62.1	3	9	270	0.00	29.535 
18:15	64.8	64.8	64.8	91	62.1	3	7	315	0.00	29.544 
18:20	65.0	65.0	65.0	90	62.0	2	6	315	0.00	29.546 
18:25	65.0	65.0	65.0	89	61.7	3	11	270	0.00	29.547 
18:30	65.0	65.0	65.0	88	61.4	3	6	270	0.00	29.559 
18:35	64.8	64.8	64.8	88	61.2	2	6	270	0.00	29.563 
18:40	64.8	64.8	64.8	88	61.2	2	6	270	0.00	29.576 
18:45	64.8	64.8	64.8	87	60.8	3	7	270	0.00	29.583 
18:50	64.7	64.7	64.7	87	60.7	3	8	270	0.00	29.591 
18:55	64.8	64.8	64.8	86	60.5	3	6	270	0.00	29.598 
19:00	64.8	64.8	64.8	87	60.8	2	4	270	0.00	29.606 
19:05	64.8	64.8	64.8	87	60.8	2	4	315	0.00	29.606 
19:10	64.7	64.7	64.7	87	60.7	2	4	270	0.00	29.608 
19:15	64.5	64.5	64.5	87	60.5	2	4	270	0.00	29.616 
19:20	64.5	64.5	64.5	87	60.5	1	4	270	0.00	29.621 
19:25	64.3	64.3	64.3	86	60.0	3	6	270	0.00	29.629 
19:30	64.3	64.3	64.3	85	59.7	2	4	315	0.00	29.635 
19:35	64.3	64.3	64.3	85	59.7	2	4	270	0.00	29.639 
19:40	64.3	64.3	64.3	85	59.7	2	4	270	0.00	29.642 
19:45	64.5	64.5	64.5	85	59.9	2	5	270	0.00	29.643 
19:50	64.5	64.5	64.5	84	59.6	2	5	270	0.00	29.651 
19:55	64.5	64.5	64.5	84	59.6	1	4	292	0.00	29.653 
20:00	64.3	64.3	64.3	83	59.0	2	5	292	0.00	29.660 
20:05	64.3	64.3	64.3	83	59.0	1	4	292	0.00	29.666 
20:10	64.2	64.2	64.2	83	58.9	2	5	315	0.00	29.671 
20:15	63.9	63.9	63.9	84	59.0	1	6	315	0.00	29.677 
20:20	63.7	63.7	63.7	85	59.1	1	3	315	0.00	29.684 
20:25	63.7	63.7	63.7	85	59.1	1	4	270	0.00	29.687 
20:30	63.5	63.5	63.5	85	58.9	1	3	270	0.00	29.694 
20:35	63.7	63.7	63.7	85	59.1	2	5	292	0.00	29.698 
20:40	63.7	63.7	63.7	84	58.8	2	5	270	0.00	29.701 
20:45	63.7	63.7	63.7	84	58.8	1	2	270	0.00	29.703 
20:50	63.7	63.7	63.7	83	58.4	2	4	292	0.00	29.705 
20:55	63.5	63.5	63.5	83	58.2	1	4	292	0.00	29.708 
21:00	63.5	63.5	63.5	84	58.6	2	4	270	0.00	29.712 
21:05	63.4	63.4	63.4	83	58.1	2	3	270	0.00	29.715 
21:10	63.2	63.2	63.2	84	58.3	2	4	270	0.00	29.717 
21:15	63.2	63.2	63.2	83	57.9	2	6	270	0.00	29.718 
21:20	63.1	63.1	63.1	84	58.2	1	4	270	0.00	29.718 
21:25	63.1	63.1	63.1	84	58.2	2	5	270	0.00	29.720 
21:30	62.9	62.9	62.9	85	58.3	1	4	270	0.00	29.722 
21:35	62.6	62.6	62.6	86	58.3	1	4	270	0.00	29.724 
21:40	62.4	62.4	62.4	87	58.5	1	4	270	0.00	29.728 
21:45	62.1	62.1	62.1	87	58.2	2	4	270	0.00	29.732 
21:50	62.0	62.0	62.0	88	58.4	1	4	292	0.00	29.730 
21:55	62.0	62.0	62.0	88	58.4	1	3	292	0.00	29.732 
22:00	61.8	61.8	61.8	89	58.5	1	3	315	0.00	29.735 
22:05	61.8	61.8	61.8	90	58.8	1	3	292	0.00	29.734 
22:10	61.6	61.6	61.6	91	58.9	1	3	292	0.00	29.739 
22:15	61.5	61.5	61.5	92	59.2	1	3	292	0.00	29.744 
22:20	61.3	61.3	61.3	92	59.0	1	3	292	0.00	29.748 
22:25	61.0	61.0	61.0	92	58.7	1	4	292	0.00	29.749 
22:30	60.9	60.9	60.9	93	58.9	1	2	292	0.00	29.750 
22:35	60.9	60.9	60.9	93	58.9	0	2	292	0.01	29.752 
22:40	60.7	60.7	60.7	94	59.0	0	2	338	0.01	29.752 
22:45	60.7	60.7	60.7	94	59.0	0	3	338	0.00	29.755 
22:50	60.5	60.5	60.5	94	58.8	1	2	270	0.01	29.759 
22:55	60.5	60.5	60.5	94	58.8	0	2	270	0.00	29.760 
23:00	60.5	60.5	60.5	95	59.1	0	2	270	0.01	29.761 
23:05	60.5	60.5	60.5	95	59.1	0	1	270	0.01	29.763 
23:10	60.5	60.5	60.5	95	59.1	0	1	270	0.00	29.765 
23:15	60.5	60.5	60.5	95	59.1	0	2	292	0.00	29.765 
23:20	60.5	60.5	60.5	95	59.1	0	2	292	0.01	29.765 
23:25	60.5	60.5	60.5	95	59.1	0	2	292	0.00	29.766 
23:30	60.5	60.5	60.5	95	59.1	1	4	292	0.01	29.767 
23:35	60.4	60.4	60.4	95	59.0	2	4	270	0.00	29.768 
23:40	60.2	60.2	60.2	95	58.8	1	4	270	0.00	29.770 
23:45	60.2	60.2	60.2	95	58.8	1	3	315	0.00	29.771 
23:50	60.2	60.2	60.2	95	58.8	1	3	292	0.00	29.773 
23:55	60.2	60.2	60.2	95	58.8	1	2	292	0.00	29.776 

CoCoRaHS
IN-AL-39
A2 Web Hosting
Creative Commons License
GoDaddy
Look for:

loaded 2017-12-13 02:35:45 • last modified 2010-11-18 10:43:29
Privacy PolicyDisclaimer
• wx.awcolley.com is powered by PmWiki v.2002016 •
• all content (unless otherwise noted) © 2017 A W Colley